This is the latest recevied weather packets stored in our database for station/object DO7ZT-13. If no packets are shown the sender has not sent any weather packets the latest 10 day(s).
| Time | Temp. | Humidity | Pressure | Rain* | Wind** | Luminosity | Snow |
|---|---|---|---|---|---|---|---|
| 1777553120 | 12.78° C | 37% | 1030.2 hPa | 0 mm | 1.34 m/s, 330° | - | - |
| 1777552807 | 12.78° C | 37% | 1030.2 hPa | 0 mm | 1.34 m/s, 307° | - | - |
| 1777552532 | 12.78° C | 36% | 1030.2 hPa | 0 mm | 0.45 m/s, 284° | - | - |
| 1777552220 | 13.89° C | 35% | 1030.3 hPa | 0 mm | 1.34 m/s, 342° | - | - |
| 1777551907 | 15° C | 34% | 1030.3 hPa | 0 mm | 0.89 m/s, 295° | - | - |
| 1777551619 | 13.89° C | 32% | 1030.3 hPa | 0 mm | 0 m/s | - | - |
| 1777551307 | 13.89° C | 32% | 1030.4 hPa | 0 mm | 0 m/s | - | - |
| 1777551019 | 12.78° C | 34% | 1030.4 hPa | 0 mm | 0.89 m/s, 264° | - | - |
| 1777550707 | 12.78° C | 35% | 1030.4 hPa | 0 mm | 0.89 m/s, 96° | - | - |
| 1777550421 | 12.78° C | 34% | 1030.6 hPa | 0 mm | 0.89 m/s, 276° | - | - |
| 1777550107 | 12.78° C | 33% | 1030.6 hPa | 0 mm | 0.89 m/s, 270° | - | - |
| 1777549820 | 12.78° C | 32% | 1030.6 hPa | 0 mm | 1.34 m/s, 256° | - | - |
| 1777549507 | 12.22° C | 34% | 1030.6 hPa | 0 mm | 0.89 m/s, 354° | - | - |
| 1777549219 | 12.22° C | 34% | 1030.6 hPa | 0 mm | 0.89 m/s, 318° | - | - |
| 1777548907 | 12.22° C | 37% | 1030.6 hPa | 0 mm | 1.79 m/s, 342° | - | - |
| 1777548620 | 12.22° C | 35% | 1030.9 hPa | 0 mm | 0.45 m/s, 302° | - | - |
| 1777548307 | 12.22° C | 35% | 1030.9 hPa | 0 mm | 0.45 m/s, 302° | - | - |
| 1777548019 | 12.22° C | 35% | 1030.9 hPa | 0 mm | 0 m/s | - | - |
| 1777547706 | 12.22° C | 35% | 1030.9 hPa | 0 mm | 0.89 m/s, 0° | - | - |
| 1777547419 | 12.22° C | 37% | 1030.9 hPa | 0 mm | 1.79 m/s, 36° | - | - |
| 1777547107 | 12.22° C | 35% | 1030.9 hPa | 0 mm | 0.89 m/s, 0° | - | - |
| 1777546819 | 12.78° C | 32% | 1030.9 hPa | 0 mm | 0.45 m/s, 258° | - | - |
| 1777546506 | 12.78° C | 34% | 1030.9 hPa | 0 mm | 0.45 m/s, 90° | - | - |
| 1777546219 | 12.22° C | 32% | 1030.9 hPa | 0 mm | 0 m/s | - | - |
| 1777545906 | 12.22° C | 33% | 1031.1 hPa | 0 mm | 0.45 m/s, 296° | - | - |
* Rain latest hour (hover to see other rain measurements)
** Current wind speed in m/s (hover to see current wind gust speed)